sensor_id;sensor_type;location;lat;lon;timestamp;temperature;humidity
53645;DHT22;39547;45.554;12.068;2023-05-10T00:03:14;17.70;60.40
53645;DHT22;39547;45.554;12.068;2023-05-10T00:09:16;17.70;60.10
53645;DHT22;39547;45.554;12.068;2023-05-10T00:15:17;17.60;59.90
53645;DHT22;39547;45.554;12.068;2023-05-10T00:21:19;17.60;59.40
53645;DHT22;39547;45.554;12.068;2023-05-10T00:27:20;17.60;59.50
53645;DHT22;39547;45.554;12.068;2023-05-10T00:33:22;17.50;59.50
53645;DHT22;39547;45.554;12.068;2023-05-10T00:39:24;17.60;59.20
53645;DHT22;39547;45.554;12.068;2023-05-10T00:45:25;17.50;59.10
53645;DHT22;39547;45.554;12.068;2023-05-10T00:51:27;17.50;58.70
53645;DHT22;39547;45.554;12.068;2023-05-10T00:57:28;17.40;59.00
53645;DHT22;39547;45.554;12.068;2023-05-10T01:03:30;17.40;59.20
53645;DHT22;39547;45.554;12.068;2023-05-10T01:09:32;17.30;59.30
53645;DHT22;39547;45.554;12.068;2023-05-10T01:15:34;17.30;59.30
53645;DHT22;39547;45.554;12.068;2023-05-10T01:21:45;17.20;59.40
53645;DHT22;39547;45.554;12.068;2023-05-10T01:34:35;17.20;59.30
53645;DHT22;39547;45.554;12.068;2023-05-10T01:40:56;17.20;59.40
53645;DHT22;39547;45.554;12.068;2023-05-10T01:47:15;17.20;60.10
53645;DHT22;39547;45.554;12.068;2023-05-10T01:53:19;17.00;61.00
53645;DHT22;39547;45.554;12.068;2023-05-10T01:59:22;16.90;62.00
53645;DHT22;39547;45.554;12.068;2023-05-10T02:05:29;16.80;62.80
53645;DHT22;39547;45.554;12.068;2023-05-10T02:11:31;16.70;63.60
53645;DHT22;39547;45.554;12.068;2023-05-10T02:17:35;16.70;64.20
53645;DHT22;39547;45.554;12.068;2023-05-10T02:23:38;16.60;64.60
53645;DHT22;39547;45.554;12.068;2023-05-10T02:29:40;16.50;64.90
53645;DHT22;39547;45.554;12.068;2023-05-10T02:35:42;16.40;65.70
53645;DHT22;39547;45.554;12.068;2023-05-10T02:41:45;16.40;65.80
53645;DHT22;39547;45.554;12.068;2023-05-10T02:47:48;16.30;66.20
53645;DHT22;39547;45.554;12.068;2023-05-10T02:53:51;16.30;66.20
53645;DHT22;39547;45.554;12.068;2023-05-10T02:59:54;16.30;66.50
53645;DHT22;39547;45.554;12.068;2023-05-10T03:05:55;16.20;66.50
53645;DHT22;39547;45.554;12.068;2023-05-10T03:12:15;16.20;66.70
53645;DHT22;39547;45.554;12.068;2023-05-10T03:18:22;16.10;67.00
53645;DHT22;39547;45.554;12.068;2023-05-10T03:24:27;16.10;67.10
53645;DHT22;39547;45.554;12.068;2023-05-10T03:30:31;16.00;67.30
53645;DHT22;39547;45.554;12.068;2023-05-10T03:36:34;16.00;67.40
53645;DHT22;39547;45.554;12.068;2023-05-10T03:42:36;15.90;67.60
53645;DHT22;39547;45.554;12.068;2023-05-10T03:48:38;15.80;67.70
53645;DHT22;39547;45.554;12.068;2023-05-10T03:54:40;15.80;68.30
53645;DHT22;39547;45.554;12.068;2023-05-10T04:00:42;15.70;68.70
53645;DHT22;39547;45.554;12.068;2023-05-10T04:06:46;15.70;68.90
53645;DHT22;39547;45.554;12.068;2023-05-10T04:12:48;15.70;69.30
53645;DHT22;39547;45.554;12.068;2023-05-10T04:18:49;15.60;69.30
53645;DHT22;39547;45.554;12.068;2023-05-10T04:24:51;15.60;69.60
53645;DHT22;39547;45.554;12.068;2023-05-10T04:30:52;15.50;69.60
53645;DHT22;39547;45.554;12.068;2023-05-10T04:36:54;15.50;69.60
53645;DHT22;39547;45.554;12.068;2023-05-10T04:42:55;15.40;70.10
53645;DHT22;39547;45.554;12.068;2023-05-10T04:48:57;15.40;70.80
53645;DHT22;39547;45.554;12.068;2023-05-10T04:54:58;15.30;70.80
53645;DHT22;39547;45.554;12.068;2023-05-10T05:01:07;15.20;71.00
53645;DHT22;39547;45.554;12.068;2023-05-10T05:07:09;15.20;71.30
53645;DHT22;39547;45.554;12.068;2023-05-10T05:13:12;15.20;71.90
53645;DHT22;39547;45.554;12.068;2023-05-10T05:19:13;15.30;72.00
53645;DHT22;39547;45.554;12.068;2023-05-10T05:25:15;15.30;71.90
53645;DHT22;39547;45.554;12.068;2023-05-10T05:31:17;15.40;72.50
53645;DHT22;39547;45.554;12.068;2023-05-10T05:37:20;15.40;72.60
53645;DHT22;39547;45.554;12.068;2023-05-10T05:43:48;15.40;72.70
53645;DHT22;39547;45.554;12.068;2023-05-10T05:49:50;15.50;72.80
53645;DHT22;39547;45.554;12.068;2023-05-10T06:01:54;15.40;73.20
53645;DHT22;39547;45.554;12.068;2023-05-10T06:07:56;15.40;73.70
53645;DHT22;39547;45.554;12.068;2023-05-10T06:13:58;15.40;73.90
53645;DHT22;39547;45.554;12.068;2023-05-10T06:20:00;15.40;74.20
53645;DHT22;39547;45.554;12.068;2023-05-10T06:26:01;15.40;74.60
53645;DHT22;39547;45.554;12.068;2023-05-10T06:32:03;15.30;74.80
53645;DHT22;39547;45.554;12.068;2023-05-10T06:38:05;15.30;75.30
53645;DHT22;39547;45.554;12.068;2023-05-10T06:44:07;15.30;75.80
53645;DHT22;39547;45.554;12.068;2023-05-10T06:50:09;15.20;76.20
53645;DHT22;39547;45.554;12.068;2023-05-10T06:56:10;15.10;76.90
53645;DHT22;39547;45.554;12.068;2023-05-10T07:02:12;15.00;77.40
53645;DHT22;39547;45.554;12.068;2023-05-10T07:08:13;15.00;77.60
53645;DHT22;39547;45.554;12.068;2023-05-10T07:14:14;15.00;78.10
53645;DHT22;39547;45.554;12.068;2023-05-10T07:20:16;15.00;78.50
53645;DHT22;39547;45.554;12.068;2023-05-10T07:26:17;14.90;79.00
53645;DHT22;39547;45.554;12.068;2023-05-10T07:32:19;14.80;79.80
53645;DHT22;39547;45.554;12.068;2023-05-10T07:38:20;14.80;80.30
53645;DHT22;39547;45.554;12.068;2023-05-10T07:44:22;14.80;80.60
53645;DHT22;39547;45.554;12.068;2023-05-10T07:50:24;14.90;80.80
53645;DHT22;39547;45.554;12.068;2023-05-10T07:56:27;14.90;81.00
53645;DHT22;39547;45.554;12.068;2023-05-10T08:02:30;14.80;81.20
53645;DHT22;39547;45.554;12.068;2023-05-10T08:08:32;14.80;81.40
53645;DHT22;39547;45.554;12.068;2023-05-10T08:14:33;14.80;81.80
53645;DHT22;39547;45.554;12.068;2023-05-10T08:20:35;14.70;82.10
53645;DHT22;39547;45.554;12.068;2023-05-10T08:26:36;14.70;82.40
53645;DHT22;39547;45.554;12.068;2023-05-10T08:32:38;14.70;82.70
53645;DHT22;39547;45.554;12.068;2023-05-10T08:38:39;14.70;82.90
53645;DHT22;39547;45.554;12.068;2023-05-10T08:44:41;14.70;83.10
53645;DHT22;39547;45.554;12.068;2023-05-10T08:50:45;14.70;83.30
53645;DHT22;39547;45.554;12.068;2023-05-10T08:56:47;14.60;83.40
53645;DHT22;39547;45.554;12.068;2023-05-10T09:02:49;14.50;83.70
53645;DHT22;39547;45.554;12.068;2023-05-10T09:08:52;14.60;83.90
53645;DHT22;39547;45.554;12.068;2023-05-10T09:14:54;14.60;84.10
53645;DHT22;39547;45.554;12.068;2023-05-10T09:20:56;14.60;84.20
53645;DHT22;39547;45.554;12.068;2023-05-10T09:26:58;14.60;84.40
53645;DHT22;39547;45.554;12.068;2023-05-10T09:33:00;14.70;84.60
53645;DHT22;39547;45.554;12.068;2023-05-10T09:39:02;14.70;84.70
53645;DHT22;39547;45.554;12.068;2023-05-10T09:45:05;14.70;84.90
53645;DHT22;39547;45.554;12.068;2023-05-10T09:51:06;14.90;85.00
53645;DHT22;39547;45.554;12.068;2023-05-10T09:57:20;14.90;85.10
53645;DHT22;39547;45.554;12.068;2023-05-10T10:03:22;15.00;85.10
53645;DHT22;39547;45.554;12.068;2023-05-10T10:09:24;15.00;85.30
53645;DHT22;39547;45.554;12.068;2023-05-10T10:15:26;14.90;85.20
53645;DHT22;39547;45.554;12.068;2023-05-10T10:21:27;14.80;85.30
53645;DHT22;39547;45.554;12.068;2023-05-10T10:34:06;14.70;85.50
53645;DHT22;39547;45.554;12.068;2023-05-10T10:40:27;14.70;85.60
53645;DHT22;39547;45.554;12.068;2023-05-10T10:46:29;14.70;85.60
53645;DHT22;39547;45.554;12.068;2023-05-10T10:52:38;14.70;85.80
53645;DHT22;39547;45.554;12.068;2023-05-10T10:58:40;14.70;85.80
53645;DHT22;39547;45.554;12.068;2023-05-10T11:04:42;14.70;85.90
53645;DHT22;39547;45.554;12.068;2023-05-10T11:17:01;14.80;86.20
53645;DHT22;39547;45.554;12.068;2023-05-10T11:23:21;14.70;86.20
53645;DHT22;39547;45.554;12.068;2023-05-10T11:29:23;14.70;86.30
53645;DHT22;39547;45.554;12.068;2023-05-10T11:35:27;14.80;86.50
53645;DHT22;39547;45.554;12.068;2023-05-10T11:41:30;14.70;86.50
53645;DHT22;39547;45.554;12.068;2023-05-10T11:47:32;14.70;86.50
53645;DHT22;39547;45.554;12.068;2023-05-10T11:53:33;14.70;86.90
53645;DHT22;39547;45.554;12.068;2023-05-10T11:59:36;14.70;87.10
53645;DHT22;39547;45.554;12.068;2023-05-10T12:05:38;14.70;87.40
53645;DHT22;39547;45.554;12.068;2023-05-10T12:11:40;14.70;87.50
53645;DHT22;39547;45.554;12.068;2023-05-10T12:17:44;14.80;87.60
53645;DHT22;39547;45.554;12.068;2023-05-10T12:23:50;14.70;87.60
53645;DHT22;39547;45.554;12.068;2023-05-10T12:29:51;14.70;87.70
53645;DHT22;39547;45.554;12.068;2023-05-10T12:35:54;14.70;87.80
53645;DHT22;39547;45.554;12.068;2023-05-10T12:41:55;14.70;87.90
53645;DHT22;39547;45.554;12.068;2023-05-10T12:47:57;14.70;87.90
53645;DHT22;39547;45.554;12.068;2023-05-10T12:53:58;14.70;88.00
53645;DHT22;39547;45.554;12.068;2023-05-10T12:59:59;14.60;88.10
53645;DHT22;39547;45.554;12.068;2023-05-10T13:06:01;14.60;88.10
53645;DHT22;39547;45.554;12.068;2023-05-10T13:12:03;14.60;88.20
53645;DHT22;39547;45.554;12.068;2023-05-10T13:18:05;14.60;88.20
53645;DHT22;39547;45.554;12.068;2023-05-10T13:24:08;14.60;88.30
53645;DHT22;39547;45.554;12.068;2023-05-10T13:30:09;14.50;88.40
53645;DHT22;39547;45.554;12.068;2023-05-10T13:36:12;14.50;88.40
53645;DHT22;39547;45.554;12.068;2023-05-10T13:42:14;14.50;88.40
53645;DHT22;39547;45.554;12.068;2023-05-10T13:48:15;14.30;88.50
53645;DHT22;39547;45.554;12.068;2023-05-10T13:54:17;14.30;88.60
53645;DHT22;39547;45.554;12.068;2023-05-10T14:00:20;14.30;88.70
53645;DHT22;39547;45.554;12.068;2023-05-10T14:06:22;14.20;88.70
53645;DHT22;39547;45.554;12.068;2023-05-10T14:12:23;14.20;88.80
53645;DHT22;39547;45.554;12.068;2023-05-10T14:18:25;14.20;89.00
53645;DHT22;39547;45.554;12.068;2023-05-10T14:24:26;14.20;89.10
53645;DHT22;39547;45.554;12.068;2023-05-10T14:30:28;14.20;89.20
53645;DHT22;39547;45.554;12.068;2023-05-10T14:36:30;14.20;89.20
53645;DHT22;39547;45.554;12.068;2023-05-10T14:42:32;14.20;89.30
53645;DHT22;39547;45.554;12.068;2023-05-10T14:48:34;14.20;89.40
53645;DHT22;39547;45.554;12.068;2023-05-10T14:54:36;14.20;89.40
53645;DHT22;39547;45.554;12.068;2023-05-10T15:00:37;14.10;89.50
53645;DHT22;39547;45.554;12.068;2023-05-10T15:06:38;14.20;89.50
53645;DHT22;39547;45.554;12.068;2023-05-10T15:12:40;14.10;89.50
53645;DHT22;39547;45.554;12.068;2023-05-10T15:18:41;14.10;89.60
53645;DHT22;39547;45.554;12.068;2023-05-10T15:24:43;14.10;89.70
53645;DHT22;39547;45.554;12.068;2023-05-10T15:30:44;14.10;89.70
53645;DHT22;39547;45.554;12.068;2023-05-10T15:36:45;14.10;89.70
53645;DHT22;39547;45.554;12.068;2023-05-10T15:42:47;14.10;89.80
53645;DHT22;39547;45.554;12.068;2023-05-10T15:48:48;14.00;89.70
53645;DHT22;39547;45.554;12.068;2023-05-10T15:54:50;14.00;89.80
53645;DHT22;39547;45.554;12.068;2023-05-10T16:00:51;14.00;89.90
53645;DHT22;39547;45.554;12.068;2023-05-10T16:06:53;14.00;89.90
53645;DHT22;39547;45.554;12.068;2023-05-10T16:12:54;14.00;90.00
53645;DHT22;39547;45.554;12.068;2023-05-10T16:18:57;13.90;89.90
53645;DHT22;39547;45.554;12.068;2023-05-10T16:24:58;14.00;90.20
53645;DHT22;39547;45.554;12.068;2023-05-10T16:31:00;13.90;90.50
53645;DHT22;39547;45.554;12.068;2023-05-10T16:37:01;13.90;90.60
53645;DHT22;39547;45.554;12.068;2023-05-10T16:43:03;13.90;90.80
53645;DHT22;39547;45.554;12.068;2023-05-10T16:49:05;13.80;90.80
53645;DHT22;39547;45.554;12.068;2023-05-10T16:55:07;13.80;90.90
53645;DHT22;39547;45.554;12.068;2023-05-10T17:01:08;13.80;91.20
53645;DHT22;39547;45.554;12.068;2023-05-10T17:07:10;13.80;91.50
53645;DHT22;39547;45.554;12.068;2023-05-10T17:13:13;13.80;91.70
53645;DHT22;39547;45.554;12.068;2023-05-10T17:19:17;13.70;91.80
53645;DHT22;39547;45.554;12.068;2023-05-10T17:25:18;13.70;92.00
53645;DHT22;39547;45.554;12.068;2023-05-10T17:31:20;13.70;92.10
53645;DHT22;39547;45.554;12.068;2023-05-10T17:37:21;13.70;92.30
53645;DHT22;39547;45.554;12.068;2023-05-10T17:43:23;13.70;92.40
53645;DHT22;39547;45.554;12.068;2023-05-10T17:49:26;13.60;92.50
53645;DHT22;39547;45.554;12.068;2023-05-10T17:55:28;13.60;92.60
53645;DHT22;39547;45.554;12.068;2023-05-10T18:01:31;13.60;92.70
53645;DHT22;39547;45.554;12.068;2023-05-10T18:07:32;13.50;92.80
53645;DHT22;39547;45.554;12.068;2023-05-10T18:13:36;13.50;92.80
53645;DHT22;39547;45.554;12.068;2023-05-10T18:19:38;13.50;92.90
53645;DHT22;39547;45.554;12.068;2023-05-10T18:25:39;13.50;93.00
53645;DHT22;39547;45.554;12.068;2023-05-10T18:31:41;13.50;93.10
53645;DHT22;39547;45.554;12.068;2023-05-10T18:37:42;13.50;93.10
53645;DHT22;39547;45.554;12.068;2023-05-10T18:43:44;13.50;93.20
53645;DHT22;39547;45.554;12.068;2023-05-10T18:49:45;13.50;93.30
53645;DHT22;39547;45.554;12.068;2023-05-10T18:55:54;13.50;93.30
53645;DHT22;39547;45.554;12.068;2023-05-10T19:01:57;13.50;93.40
53645;DHT22;39547;45.554;12.068;2023-05-10T19:07:58;13.50;93.50
53645;DHT22;39547;45.554;12.068;2023-05-10T19:14:00;13.50;93.50
53645;DHT22;39547;45.554;12.068;2023-05-10T19:20:06;13.50;93.60
53645;DHT22;39547;45.554;12.068;2023-05-10T19:26:08;13.50;93.60
53645;DHT22;39547;45.554;12.068;2023-05-10T19:32:11;13.50;93.60
53645;DHT22;39547;45.554;12.068;2023-05-10T19:38:12;13.50;93.60
53645;DHT22;39547;45.554;12.068;2023-05-10T19:44:14;13.40;93.70
53645;DHT22;39547;45.554;12.068;2023-05-10T19:50:17;13.40;93.70
53645;DHT22;39547;45.554;12.068;2023-05-10T19:56:18;13.40;93.70
53645;DHT22;39547;45.554;12.068;2023-05-10T20:02:20;13.40;93.80
53645;DHT22;39547;45.554;12.068;2023-05-10T20:08:22;13.30;93.80
53645;DHT22;39547;45.554;12.068;2023-05-10T20:14:24;13.30;93.80
53645;DHT22;39547;45.554;12.068;2023-05-10T20:20:26;13.30;93.90
53645;DHT22;39547;45.554;12.068;2023-05-10T20:26:28;13.30;93.90
53645;DHT22;39547;45.554;12.068;2023-05-10T20:32:30;13.30;94.00
53645;DHT22;39547;45.554;12.068;2023-05-10T20:38:31;13.30;94.00
53645;DHT22;39547;45.554;12.068;2023-05-10T20:44:33;13.30;94.00
53645;DHT22;39547;45.554;12.068;2023-05-10T20:50:35;13.30;94.10
53645;DHT22;39547;45.554;12.068;2023-05-10T20:56:36;13.30;94.10
53645;DHT22;39547;45.554;12.068;2023-05-10T21:02:40;13.30;94.10
53645;DHT22;39547;45.554;12.068;2023-05-10T21:08:43;13.30;94.20
53645;DHT22;39547;45.554;12.068;2023-05-10T21:14:44;13.30;94.30
53645;DHT22;39547;45.554;12.068;2023-05-10T21:20:47;13.30;94.30
53645;DHT22;39547;45.554;12.068;2023-05-10T21:26:49;13.30;94.30
53645;DHT22;39547;45.554;12.068;2023-05-10T21:32:50;13.40;94.30
53645;DHT22;39547;45.554;12.068;2023-05-10T21:38:52;13.30;94.30
53645;DHT22;39547;45.554;12.068;2023-05-10T21:44:53;13.30;94.20
53645;DHT22;39547;45.554;12.068;2023-05-10T21:50:55;13.30;94.30
53645;DHT22;39547;45.554;12.068;2023-05-10T21:56:57;13.30;94.40
53645;DHT22;39547;45.554;12.068;2023-05-10T22:02:58;13.20;94.40
53645;DHT22;39547;45.554;12.068;2023-05-10T22:08:59;13.30;94.50
53645;DHT22;39547;45.554;12.068;2023-05-10T22:15:01;13.30;94.40
53645;DHT22;39547;45.554;12.068;2023-05-10T22:21:02;13.30;94.40
53645;DHT22;39547;45.554;12.068;2023-05-10T22:27:04;13.20;94.40
53645;DHT22;39547;45.554;12.068;2023-05-10T22:33:06;13.20;94.40
53645;DHT22;39547;45.554;12.068;2023-05-10T22:39:07;13.20;94.40
53645;DHT22;39547;45.554;12.068;2023-05-10T22:45:09;13.20;94.40
53645;DHT22;39547;45.554;12.068;2023-05-10T22:51:10;13.20;94.30
53645;DHT22;39547;45.554;12.068;2023-05-10T22:57:12;13.20;94.50
53645;DHT22;39547;45.554;12.068;2023-05-10T23:03:13;13.20;94.50
53645;DHT22;39547;45.554;12.068;2023-05-10T23:09:15;13.20;94.50
53645;DHT22;39547;45.554;12.068;2023-05-10T23:15:16;13.20;94.50
53645;DHT22;39547;45.554;12.068;2023-05-10T23:21:18;13.20;94.60
53645;DHT22;39547;45.554;12.068;2023-05-10T23:27:19;13.20;94.50
53645;DHT22;39547;45.554;12.068;2023-05-10T23:33:21;13.20;94.60
53645;DHT22;39547;45.554;12.068;2023-05-10T23:39:23;13.10;94.50
53645;DHT22;39547;45.554;12.068;2023-05-10T23:45:24;13.00;94.50
53645;DHT22;39547;45.554;12.068;2023-05-10T23:51:26;13.00;94.60
53645;DHT22;39547;45.554;12.068;2023-05-10T23:57:28;13.00;94.60
